createdAt,value
2023-08-17T00:00:15.240Z,92.68
2023-08-17T00:01:15.173Z,92.69
2023-08-17T00:02:15.142Z,92.71
2023-08-17T00:03:15.158Z,92.63
2023-08-17T00:04:15.974Z,92.60
2023-08-17T00:05:15.105Z,92.56
2023-08-17T00:06:15.112Z,92.57
2023-08-17T00:07:15.069Z,92.48
2023-08-17T00:08:15.068Z,92.48
2023-08-17T00:09:15.117Z,92.54
2023-08-17T00:10:15.680Z,92.57
2023-08-17T00:11:15.034Z,92.57
2023-08-17T00:12:15.838Z,92.54
2023-08-17T00:13:15.293Z,92.50
2023-08-17T00:14:15.013Z,92.49
2023-08-17T00:15:14.988Z,92.48
2023-08-17T00:16:15.014Z,92.48
2023-08-17T00:17:14.979Z,92.49
2023-08-17T00:18:14.969Z,92.52
2023-08-17T00:19:14.932Z,92.52
2023-08-17T00:20:15.179Z,92.52
2023-08-17T00:21:15.214Z,92.51
2023-08-17T00:22:14.921Z,92.52
2023-08-17T00:23:14.897Z,92.55
2023-08-17T00:24:15.296Z,92.59
2023-08-17T00:25:14.882Z,92.59
2023-08-17T00:26:14.883Z,92.62
2023-08-17T00:27:14.875Z,92.63
2023-08-17T00:28:15.441Z,92.66
2023-08-17T00:29:15.301Z,92.68
2023-08-17T00:30:14.826Z,92.68
2023-08-17T00:31:14.862Z,92.69
2023-08-17T00:32:14.801Z,92.71
2023-08-17T00:33:14.841Z,92.69
2023-08-17T00:34:14.782Z,92.68
2023-08-17T00:35:14.777Z,92.65
2023-08-17T00:36:14.810Z,92.65
2023-08-17T00:37:14.751Z,92.63
2023-08-17T00:38:14.775Z,92.60
2023-08-17T00:39:14.709Z,92.54
2023-08-17T00:40:14.746Z,92.38
2023-08-17T00:41:14.704Z,92.18
2023-08-17T00:42:14.685Z,92.14
2023-08-17T00:43:14.687Z,92.26
2023-08-17T00:44:15.355Z,92.30
2023-08-17T00:45:15.129Z,92.26
2023-08-17T00:46:14.671Z,92.25
2023-08-17T00:47:14.612Z,92.29
2023-08-17T00:48:15.402Z,92.30
2023-08-17T00:49:14.603Z,92.26
2023-08-17T00:50:14.613Z,92.29
2023-08-17T00:51:14.585Z,92.31
2023-08-17T00:52:14.908Z,92.32
2023-08-17T00:53:14.803Z,92.32
2023-08-17T00:54:14.560Z,92.37
2023-08-17T00:55:14.599Z,92.37
2023-08-17T00:56:14.532Z,92.38
2023-08-17T00:57:14.852Z,92.40
2023-08-17T00:58:14.816Z,92.43
2023-08-17T00:59:14.489Z,92.46
2023-08-17T01:00:17.950Z,92.48
2023-08-17T01:01:14.498Z,92.50
2023-08-17T01:02:14.492Z,92.55
2023-08-17T01:03:14.464Z,92.56
2023-08-17T01:04:14.449Z,92.58
2023-08-17T01:05:14.478Z,92.59
2023-08-17T01:06:14.425Z,92.59
2023-08-17T01:07:14.428Z,92.59
2023-08-17T01:08:14.711Z,92.59
2023-08-17T01:09:14.401Z,92.60
2023-08-17T01:10:14.409Z,92.63
2023-08-17T01:11:14.341Z,92.64
2023-08-17T01:12:14.362Z,92.61
2023-08-17T01:13:14.348Z,92.63
2023-08-17T01:14:14.331Z,92.64
2023-08-17T01:15:14.324Z,92.64
2023-08-17T01:16:15.009Z,92.70
2023-08-17T01:17:14.306Z,92.70
2023-08-17T01:18:14.304Z,92.71
2023-08-17T01:19:14.262Z,92.72
2023-08-17T01:20:14.268Z,92.73
2023-08-17T01:21:14.235Z,92.74
2023-08-17T01:22:14.357Z,92.74
2023-08-17T01:23:14.250Z,92.71
2023-08-17T01:24:14.975Z,92.64
2023-08-17T01:25:14.214Z,92.64
2023-08-17T01:26:14.200Z,92.64
2023-08-17T01:27:14.921Z,92.65
2023-08-17T01:28:14.360Z,92.65
2023-08-17T01:29:14.148Z,92.65
2023-08-17T01:30:14.279Z,92.65
2023-08-17T01:31:14.180Z,92.63
2023-08-17T01:32:14.261Z,92.64
2023-08-17T01:33:14.123Z,92.65
2023-08-17T01:34:14.117Z,92.64
2023-08-17T01:35:14.083Z,92.62
2023-08-17T01:36:14.134Z,92.62
2023-08-17T01:37:14.076Z,92.60
2023-08-17T01:38:14.069Z,92.55
2023-08-17T01:39:14.056Z,92.53
2023-08-17T01:40:15.045Z,92.47
2023-08-17T01:41:14.018Z,92.43
2023-08-17T01:42:14.026Z,92.42
2023-08-17T01:43:14.356Z,92.40
2023-08-17T01:44:14.022Z,92.44
2023-08-17T01:45:13.965Z,92.41
2023-08-17T01:46:14.336Z,92.45
2023-08-17T01:47:13.952Z,92.44
2023-08-17T01:48:14.012Z,92.46
2023-08-17T01:49:14.018Z,92.44
2023-08-17T01:50:13.937Z,92.44
2023-08-17T01:51:13.899Z,92.44
2023-08-17T01:52:13.928Z,92.44
2023-08-17T01:53:13.871Z,92.44
2023-08-17T01:54:13.911Z,92.44
2023-08-17T01:55:13.860Z,92.44
2023-08-17T01:56:14.267Z,92.43
2023-08-17T01:57:13.851Z,92.41
2023-08-17T01:58:13.852Z,92.41
2023-08-17T01:59:13.807Z,92.43
2023-08-17T02:00:13.848Z,92.44
2023-08-17T02:01:13.799Z,92.43
2023-08-17T02:02:13.847Z,92.44
2023-08-17T02:03:13.877Z,92.44
2023-08-17T02:04:14.390Z,92.43
2023-08-17T02:05:13.743Z,92.44
2023-08-17T02:06:13.767Z,92.45
2023-08-17T02:07:13.751Z,92.46
2023-08-17T02:08:13.764Z,92.49
2023-08-17T02:09:13.753Z,92.52
2023-08-17T02:10:13.733Z,92.51
2023-08-17T02:11:13.677Z,92.50
2023-08-17T02:12:14.095Z,92.52
2023-08-17T02:13:18.187Z,92.54
2023-08-17T02:14:13.677Z,92.53
2023-08-17T02:15:13.644Z,92.50
2023-08-17T02:16:14.414Z,92.50
2023-08-17T02:17:13.622Z,92.52
2023-08-17T02:18:13.667Z,92.54
2023-08-17T02:19:13.817Z,92.57
2023-08-17T02:20:14.695Z,92.58
2023-08-17T02:21:13.581Z,92.61
2023-08-17T02:22:13.564Z,92.63
2023-08-17T02:23:14.505Z,92.66
2023-08-17T02:24:14.437Z,92.66
2023-08-17T02:25:14.167Z,92.67
2023-08-17T02:26:14.721Z,92.70
2023-08-17T02:27:14.411Z,92.72
2023-08-17T02:28:14.127Z,92.74
2023-08-17T02:29:14.411Z,92.73
2023-08-17T02:30:14.356Z,92.72
2023-08-17T02:31:13.516Z,92.72
2023-08-17T02:32:14.421Z,92.73
2023-08-17T02:33:13.478Z,92.75
2023-08-17T02:34:13.482Z,92.77
2023-08-17T02:35:13.481Z,92.77
2023-08-17T02:36:13.503Z,92.80
2023-08-17T02:37:13.419Z,92.81
2023-08-17T02:38:13.591Z,92.83
2023-08-17T02:39:13.629Z,92.86
2023-08-17T02:40:13.399Z,92.88
2023-08-17T02:41:13.705Z,92.92
2023-08-17T02:42:13.721Z,92.96
2023-08-17T02:43:13.757Z,93.02
2023-08-17T02:44:13.437Z,93.04
2023-08-17T02:45:13.313Z,93.05
2023-08-17T02:46:13.347Z,93.07
2023-08-17T02:47:13.880Z,93.09
2023-08-17T02:48:13.430Z,93.11
2023-08-17T02:49:13.267Z,93.10
2023-08-17T02:50:13.420Z,93.12
2023-08-17T02:51:14.019Z,93.15
2023-08-17T02:52:13.434Z,93.18
2023-08-17T02:53:13.443Z,93.18
2023-08-17T02:54:13.869Z,93.20
2023-08-17T02:55:13.873Z,93.24
2023-08-17T02:56:13.234Z,93.23
2023-08-17T02:57:13.180Z,93.27
2023-08-17T02:58:14.208Z,93.28
2023-08-17T02:59:13.459Z,93.28
2023-08-17T03:00:13.442Z,93.30
2023-08-17T03:01:13.259Z,93.31
2023-08-17T03:02:13.120Z,93.30
2023-08-17T03:03:13.151Z,93.30
2023-08-17T03:04:13.442Z,93.30
2023-08-17T03:05:13.459Z,93.32
2023-08-17T03:06:13.434Z,93.34
2023-08-17T03:07:13.448Z,93.34
2023-08-17T03:08:13.440Z,93.36
2023-08-17T03:09:13.042Z,93.35
2023-08-17T03:10:13.023Z,93.33
2023-08-17T03:11:13.301Z,93.33
2023-08-17T03:12:13.004Z,93.35
2023-08-17T03:13:13.453Z,93.37
2023-08-17T03:14:13.254Z,93.39
2023-08-17T03:15:13.275Z,93.37
2023-08-17T03:16:13.465Z,93.34
2023-08-17T03:17:13.463Z,93.34
2023-08-17T03:18:13.442Z,93.33
2023-08-17T03:19:12.939Z,93.33
2023-08-17T03:20:12.927Z,93.33
2023-08-17T03:21:12.921Z,93.34
2023-08-17T03:22:12.991Z,93.34
2023-08-17T03:23:12.971Z,93.36
2023-08-17T03:24:13.050Z,93.39
2023-08-17T03:25:12.869Z,93.41
2023-08-17T03:26:13.107Z,93.42
2023-08-17T03:27:13.038Z,93.44
2023-08-17T03:28:12.819Z,93.47
2023-08-17T03:29:13.228Z,93.48
2023-08-17T03:30:13.243Z,93.49
2023-08-17T03:31:12.817Z,93.49
2023-08-17T03:32:13.310Z,93.51
2023-08-17T03:33:12.800Z,93.53
2023-08-17T03:34:13.370Z,93.53
2023-08-17T03:35:13.404Z,93.55
2023-08-17T03:36:13.453Z,93.55
2023-08-17T03:37:12.728Z,93.55
2023-08-17T03:38:13.030Z,93.57
2023-08-17T03:39:13.483Z,93.57
2023-08-17T03:40:13.497Z,93.57
2023-08-17T03:41:13.416Z,93.56
2023-08-17T03:42:12.672Z,93.56
2023-08-17T03:43:13.480Z,93.58
2023-08-17T03:44:13.396Z,93.59
2023-08-17T03:45:13.743Z,93.58
2023-08-17T03:46:12.664Z,93.58
2023-08-17T03:47:12.744Z,93.59
2023-08-17T03:48:13.478Z,93.59
2023-08-17T03:49:12.584Z,93.59
2023-08-17T03:50:12.565Z,93.56
2023-08-17T03:51:13.486Z,93.54
2023-08-17T03:52:12.556Z,93.53
2023-08-17T03:53:13.098Z,93.54
2023-08-17T03:54:13.447Z,93.53
2023-08-17T03:55:12.526Z,93.52
2023-08-17T03:56:12.508Z,93.50
2023-08-17T03:57:13.493Z,93.48
2023-08-17T03:58:12.476Z,93.48
2023-08-17T03:59:12.496Z,93.49
2023-08-17T04:00:12.516Z,93.50
2023-08-17T04:01:13.313Z,93.45
2023-08-17T04:02:12.500Z,93.44
2023-08-17T04:03:13.496Z,93.43
2023-08-17T04:04:12.520Z,93.40
2023-08-17T04:05:12.409Z,93.40
2023-08-17T04:06:12.414Z,93.41
2023-08-17T04:07:12.415Z,93.40
2023-08-17T04:08:12.362Z,93.41
2023-08-17T04:09:12.517Z,93.44
2023-08-17T04:10:12.368Z,93.47
2023-08-17T04:11:12.572Z,93.45
2023-08-17T04:12:12.489Z,93.44
2023-08-17T04:13:12.338Z,93.44
2023-08-17T04:14:12.292Z,93.47
2023-08-17T04:15:12.465Z,93.47
2023-08-17T04:16:12.317Z,93.46
2023-08-17T04:17:12.305Z,93.47
2023-08-17T04:18:12.547Z,93.48
2023-08-17T04:19:12.844Z,93.47
2023-08-17T04:20:12.518Z,93.50
2023-08-17T04:21:12.221Z,93.51
2023-08-17T04:22:12.200Z,93.50
2023-08-17T04:23:12.518Z,93.50
2023-08-17T04:24:12.526Z,93.48
2023-08-17T04:25:12.192Z,93.51
2023-08-17T04:26:12.166Z,93.50
2023-08-17T04:27:12.444Z,93.52
2023-08-17T04:28:14.416Z,93.52
2023-08-17T04:29:13.161Z,93.52
2023-08-17T04:30:12.151Z,93.53
2023-08-17T04:31:12.983Z,93.55
2023-08-17T04:32:12.092Z,93.55
2023-08-17T04:33:12.266Z,93.57
2023-08-17T04:34:12.076Z,93.58
2023-08-17T04:35:13.096Z,93.61
2023-08-17T04:36:12.109Z,93.62
2023-08-17T04:37:12.518Z,93.66
2023-08-17T04:38:12.016Z,93.64
2023-08-17T04:39:12.238Z,93.64
2023-08-17T04:40:12.020Z,93.65
2023-08-17T04:41:13.046Z,93.65
2023-08-17T04:42:11.992Z,93.66
2023-08-17T04:43:12.526Z,93.67
2023-08-17T04:44:12.525Z,93.67
2023-08-17T04:45:12.587Z,93.67
2023-08-17T04:46:11.991Z,93.67
2023-08-17T04:47:12.543Z,93.68
2023-08-17T04:48:11.999Z,93.67
2023-08-17T04:49:12.543Z,93.67
2023-08-17T04:50:11.897Z,93.67
2023-08-17T04:51:11.928Z,93.67
2023-08-17T04:52:11.961Z,93.65
2023-08-17T04:53:11.886Z,93.63
2023-08-17T04:54:11.836Z,93.57
2023-08-17T04:55:12.058Z,93.53
2023-08-17T04:56:12.077Z,93.51
2023-08-17T04:57:12.114Z,93.49
2023-08-17T04:58:12.144Z,93.49
2023-08-17T04:59:12.163Z,93.48
2023-08-17T05:00:12.198Z,93.45
2023-08-17T05:01:11.813Z,93.43
2023-08-17T05:02:12.301Z,93.41
2023-08-17T05:03:23.930Z,93.40
2023-08-17T05:04:12.728Z,93.40
2023-08-17T05:05:11.746Z,93.37
2023-08-17T05:06:12.392Z,93.39
2023-08-17T05:07:12.449Z,93.39
2023-08-17T05:08:11.784Z,93.39
2023-08-17T05:09:12.541Z,93.41
2023-08-17T05:10:12.527Z,93.38
2023-08-17T05:11:12.599Z,93.39
2023-08-17T05:12:12.554Z,93.41
2023-08-17T05:13:12.526Z,93.42
2023-08-17T05:14:11.704Z,93.42
2023-08-17T05:15:12.634Z,93.41
2023-08-17T05:16:12.612Z,93.42
2023-08-17T05:17:12.648Z,93.42
2023-08-17T05:18:11.586Z,93.36
2023-08-17T05:19:11.568Z,93.34
2023-08-17T05:20:12.362Z,93.22
2023-08-17T05:21:12.562Z,93.11
2023-08-17T05:22:11.565Z,93.09
2023-08-17T05:23:12.566Z,93.09
2023-08-17T05:24:11.565Z,93.11
2023-08-17T05:25:11.518Z,93.15
2023-08-17T05:26:11.864Z,93.15
2023-08-17T05:27:11.596Z,93.16
2023-08-17T05:28:11.471Z,93.17
2023-08-17T05:29:11.576Z,93.19
2023-08-17T05:30:11.575Z,93.20
2023-08-17T05:31:11.529Z,93.19
2023-08-17T05:32:11.570Z,93.20
2023-08-17T05:33:11.579Z,93.21
2023-08-17T05:34:11.409Z,93.23
2023-08-17T05:35:11.392Z,93.24
2023-08-17T05:36:11.366Z,93.26
2023-08-17T05:37:11.464Z,93.25
2023-08-17T05:38:11.495Z,93.25
2023-08-17T05:39:11.572Z,93.26
2023-08-17T05:40:11.541Z,93.27
2023-08-17T05:41:11.350Z,93.23
2023-08-17T05:42:11.310Z,93.17
2023-08-17T05:43:11.655Z,93.05
2023-08-17T05:44:11.273Z,92.99
2023-08-17T05:45:11.719Z,93.00
2023-08-17T05:46:11.595Z,93.02
2023-08-17T05:47:11.792Z,93.02
2023-08-17T05:48:11.583Z,93.05
2023-08-17T05:49:11.253Z,93.06
2023-08-17T05:50:11.588Z,93.07
2023-08-17T05:51:11.604Z,93.07
2023-08-17T05:52:11.248Z,93.07
2023-08-17T05:53:11.197Z,93.10
2023-08-17T05:54:11.581Z,93.11
2023-08-17T05:55:11.593Z,93.11
2023-08-17T05:56:11.609Z,93.14
2023-08-17T05:57:11.185Z,93.15
2023-08-17T05:58:11.591Z,93.16
2023-08-17T05:59:11.341Z,93.16
2023-08-17T06:00:11.607Z,93.19
2023-08-17T06:01:11.671Z,93.19
2023-08-17T06:02:11.626Z,93.20
2023-08-17T06:03:11.693Z,93.19
2023-08-17T06:04:11.604Z,93.21
2023-08-17T06:05:11.601Z,93.20
2023-08-17T06:06:11.607Z,93.19
2023-08-17T06:07:11.615Z,93.21
2023-08-17T06:08:11.607Z,93.21
2023-08-17T06:09:11.696Z,93.23
2023-08-17T06:10:11.624Z,93.24
2023-08-17T06:11:11.615Z,93.25
2023-08-17T06:12:10.980Z,93.25
2023-08-17T06:13:10.987Z,93.28
2023-08-17T06:14:11.610Z,93.28
2023-08-17T06:15:11.138Z,93.28
2023-08-17T06:16:11.704Z,93.27
2023-08-17T06:17:11.606Z,93.24
2023-08-17T06:18:10.897Z,93.23
2023-08-17T06:19:10.935Z,93.25
2023-08-17T06:20:10.928Z,93.23
2023-08-17T06:21:10.865Z,93.23
2023-08-17T06:22:10.983Z,93.26
2023-08-17T06:23:11.023Z,93.23
2023-08-17T06:24:10.815Z,93.23
2023-08-17T06:25:10.850Z,93.25
2023-08-17T06:26:10.800Z,93.24
2023-08-17T06:27:11.157Z,93.24
2023-08-17T06:28:11.188Z,93.26
2023-08-17T06:29:10.775Z,93.27
2023-08-17T06:30:11.251Z,93.28
2023-08-17T06:31:11.320Z,93.29
2023-08-17T06:32:10.738Z,93.25
2023-08-17T06:33:11.360Z,93.24
2023-08-17T06:34:11.410Z,93.23
2023-08-17T06:35:11.430Z,93.21
2023-08-17T06:36:11.456Z,93.19
2023-08-17T06:37:10.685Z,93.19
2023-08-17T06:38:10.653Z,93.18
2023-08-17T06:39:10.691Z,93.15
2023-08-17T06:40:10.657Z,93.15
2023-08-17T06:41:10.663Z,93.13
2023-08-17T06:42:10.607Z,93.10
2023-08-17T06:43:10.647Z,93.07
2023-08-17T06:44:10.587Z,93.03
2023-08-17T06:45:10.606Z,93.02
2023-08-17T06:46:10.601Z,93.02
2023-08-17T06:47:10.600Z,92.96
2023-08-17T06:48:10.645Z,92.92
2023-08-17T06:49:10.652Z,92.85
2023-08-17T06:50:13.080Z,92.79
2023-08-17T06:51:10.647Z,92.80
2023-08-17T06:52:10.561Z,92.79
2023-08-17T06:53:10.570Z,92.74
2023-08-17T06:54:10.624Z,92.70
2023-08-17T06:55:10.654Z,92.64
2023-08-17T06:56:10.528Z,92.60
2023-08-17T06:57:10.563Z,92.58
2023-08-17T06:58:10.667Z,92.56
2023-08-17T06:59:10.418Z,92.55
2023-08-17T07:00:10.669Z,92.46
2023-08-17T07:01:10.396Z,92.34
2023-08-17T07:02:10.425Z,92.24
2023-08-17T07:03:10.571Z,92.21
2023-08-17T07:04:10.373Z,92.22
2023-08-17T07:05:10.413Z,92.16
2023-08-17T07:06:10.350Z,92.17
2023-08-17T07:07:10.324Z,92.18
2023-08-17T07:08:10.359Z,92.14
2023-08-17T07:09:10.567Z,91.91
2023-08-17T07:10:10.582Z,91.67
2023-08-17T07:11:10.629Z,91.55
2023-08-17T07:12:10.292Z,91.58
2023-08-17T07:13:10.661Z,91.57
2023-08-17T07:14:10.673Z,91.56
2023-08-17T07:15:10.241Z,91.55
2023-08-17T07:16:10.260Z,91.58
2023-08-17T07:17:10.213Z,91.59
2023-08-17T07:18:10.314Z,91.56
2023-08-17T07:19:10.222Z,91.43
2023-08-17T07:21:10.245Z,91.44
2023-08-17T07:22:10.672Z,91.45
2023-08-17T07:23:10.162Z,91.47
2023-08-17T07:24:10.180Z,91.46
2023-08-17T07:25:10.319Z,91.45
2023-08-17T07:26:12.978Z,91.44
2023-08-17T07:27:10.677Z,91.46
2023-08-17T07:28:10.107Z,91.47
2023-08-17T07:29:10.677Z,91.43
2023-08-17T07:30:10.690Z,91.48
2023-08-17T07:31:10.085Z,91.50
2023-08-17T07:32:10.087Z,91.52
2023-08-17T07:33:10.691Z,91.55
2023-08-17T07:34:10.027Z,91.51
2023-08-17T07:35:10.040Z,91.49
2023-08-17T07:36:10.091Z,91.43
2023-08-17T07:37:10.429Z,91.47
2023-08-17T07:38:10.035Z,91.48
2023-08-17T07:39:09.957Z,91.49
2023-08-17T07:40:09.978Z,91.50
2023-08-17T07:41:09.936Z,91.39
2023-08-17T07:42:10.018Z,91.39
2023-08-17T07:43:10.880Z,91.44
2023-08-17T07:44:09.919Z,91.47
2023-08-17T07:45:10.052Z,91.57
2023-08-17T07:46:10.181Z,91.60
2023-08-17T07:47:09.886Z,91.62
2023-08-17T07:48:09.942Z,91.62
2023-08-17T07:49:18.794Z,91.70
2023-08-17T07:50:11.130Z,91.71
2023-08-17T07:51:09.980Z,91.83
2023-08-17T07:52:09.839Z,91.87
2023-08-17T07:53:10.020Z,91.84
2023-08-17T07:54:09.819Z,91.88
2023-08-17T07:55:10.127Z,91.91
2023-08-17T07:56:10.146Z,91.95
2023-08-17T07:57:10.207Z,91.97
2023-08-17T07:58:10.222Z,92.00
2023-08-17T07:59:09.739Z,92.03
2023-08-17T08:00:09.751Z,92.10
2023-08-17T08:01:09.761Z,92.15
2023-08-17T08:02:09.722Z,92.09
2023-08-17T08:03:09.778Z,92.13
2023-08-17T08:04:09.690Z,92.24
2023-08-17T08:05:09.676Z,92.25
2023-08-17T08:06:09.689Z,92.22
2023-08-17T08:07:09.707Z,92.21
2023-08-17T08:08:09.654Z,92.21
2023-08-17T08:09:09.625Z,92.21
2023-08-17T08:10:09.646Z,92.26
2023-08-17T08:11:09.610Z,92.28
2023-08-17T08:12:09.614Z,92.34
2023-08-17T08:13:09.572Z,92.38
2023-08-17T08:14:09.718Z,92.39
2023-08-17T08:15:09.717Z,92.41
2023-08-17T08:16:09.763Z,92.42
2023-08-17T08:17:09.724Z,92.43
2023-08-17T08:18:09.774Z,92.47
2023-08-17T08:19:09.522Z,92.47
2023-08-17T08:20:09.725Z,92.51
2023-08-17T08:21:09.721Z,92.57
2023-08-17T08:22:09.701Z,92.60
2023-08-17T08:23:09.461Z,92.64
2023-08-17T08:24:17.545Z,92.66
2023-08-17T08:25:10.731Z,92.68
2023-08-17T08:26:09.436Z,92.70
2023-08-17T08:27:09.451Z,92.64
2023-08-17T08:28:09.444Z,92.56
2023-08-17T08:29:09.400Z,92.59
2023-08-17T08:30:09.714Z,92.64
2023-08-17T08:31:09.756Z,92.62
2023-08-17T08:32:09.732Z,92.57
2023-08-17T08:33:09.479Z,92.56
2023-08-17T08:34:09.441Z,92.57
2023-08-17T08:35:09.328Z,92.59
2023-08-17T08:36:09.500Z,92.62
2023-08-17T08:37:09.369Z,92.57
2023-08-17T08:38:09.570Z,92.54
2023-08-17T08:39:09.613Z,92.48
2023-08-17T08:40:09.642Z,92.36
2023-08-17T08:41:09.272Z,92.36
2023-08-17T08:42:09.265Z,92.36
2023-08-17T08:43:09.330Z,92.31
2023-08-17T08:44:09.237Z,92.29
2023-08-17T08:45:09.226Z,92.30
2023-08-17T08:46:09.800Z,92.22
2023-08-17T08:47:09.218Z,92.16
2023-08-17T08:48:09.250Z,92.12
2023-08-17T08:49:09.748Z,92.04
2023-08-17T08:50:09.216Z,91.93
2023-08-17T08:51:09.764Z,91.70
2023-08-17T08:52:09.156Z,91.47
2023-08-17T08:53:09.135Z,91.20
2023-08-17T08:54:09.165Z,91.11
2023-08-17T08:55:09.760Z,91.01
2023-08-17T08:56:09.168Z,90.99
2023-08-17T08:57:09.105Z,90.91
2023-08-17T08:58:09.085Z,90.82
2023-08-17T08:59:09.069Z,90.81
2023-08-17T09:00:09.129Z,90.74
2023-08-17T09:01:09.357Z,90.64
2023-08-17T09:02:13.670Z,90.69
2023-08-17T09:03:09.159Z,90.67
2023-08-17T09:04:09.045Z,90.58
2023-08-17T09:05:09.088Z,90.27
2023-08-17T09:06:09.058Z,90.05
2023-08-17T09:07:08.950Z,90.02
2023-08-17T09:08:09.149Z,90.15
2023-08-17T09:09:08.961Z,90.22
2023-08-17T09:10:09.213Z,90.03
2023-08-17T09:11:09.257Z,90.03
2023-08-17T09:12:09.204Z,90.02
2023-08-17T09:13:09.332Z,89.93
2023-08-17T09:14:09.365Z,89.33
2023-08-17T09:15:09.428Z,88.88
2023-08-17T09:16:08.907Z,88.64
2023-08-17T09:17:08.842Z,88.55
2023-08-17T09:18:12.398Z,88.56
2023-08-17T09:19:08.947Z,88.51
2023-08-17T09:20:08.989Z,88.54
2023-08-17T09:21:08.815Z,88.54
2023-08-17T09:22:08.803Z,88.49
2023-08-17T09:23:08.794Z,88.02
2023-08-17T09:24:08.778Z,87.80
2023-08-17T09:25:08.774Z,87.92
2023-08-17T09:26:08.815Z,88.03
2023-08-17T09:27:10.820Z,88.02
2023-08-17T09:28:13.366Z,87.99
2023-08-17T09:29:08.725Z,87.74
2023-08-17T09:30:08.732Z,87.17
2023-08-17T09:31:08.767Z,87.49
2023-08-17T09:32:08.689Z,87.53
2023-08-17T09:33:08.687Z,87.64
2023-08-17T09:34:08.676Z,87.44
2023-08-17T09:35:08.663Z,87.39
2023-08-17T09:36:08.650Z,87.18
2023-08-17T09:37:08.638Z,86.99
2023-08-17T09:38:10.080Z,86.89
2023-08-17T09:39:08.595Z,86.37
2023-08-17T09:40:08.609Z,86.32
2023-08-17T09:41:08.597Z,85.49
2023-08-17T09:42:08.604Z,85.18
2023-08-17T09:43:08.848Z,85.03
2023-08-17T09:44:08.799Z,84.77
2023-08-17T09:45:08.568Z,84.82
2023-08-17T09:46:08.623Z,85.01
2023-08-17T09:47:08.520Z,84.74
2023-08-17T09:48:08.522Z,84.39
2023-08-17T09:49:08.474Z,85.08
2023-08-17T09:50:08.718Z,85.03
2023-08-17T09:51:08.755Z,84.31
2023-08-17T09:52:08.597Z,84.32
2023-08-17T09:53:08.793Z,84.58
2023-08-17T09:54:08.458Z,84.27
2023-08-17T09:55:08.733Z,84.46
2023-08-17T09:56:08.413Z,83.87
2023-08-17T09:57:08.427Z,83.71
2023-08-17T09:58:08.821Z,84.62
2023-08-17T09:59:08.810Z,83.54
2023-08-17T10:00:08.386Z,83.61
2023-08-17T10:01:08.395Z,84.22
2023-08-17T10:02:08.461Z,84.34
2023-08-17T10:03:08.493Z,84.01
2023-08-17T10:04:12.820Z,83.73
2023-08-17T10:05:08.324Z,82.32
2023-08-17T10:06:08.413Z,82.04
2023-08-17T10:07:08.310Z,82.62
2023-08-17T10:08:08.295Z,82.58
2023-08-17T10:09:08.254Z,82.83
2023-08-17T10:10:08.257Z,82.47
2023-08-17T10:11:08.240Z,82.54
2023-08-17T10:12:08.277Z,82.83
2023-08-17T10:13:08.216Z,82.95
2023-08-17T10:14:11.627Z,81.95
2023-08-17T10:15:08.221Z,81.96
2023-08-17T10:16:08.862Z,81.74
2023-08-17T10:17:08.177Z,81.81
2023-08-17T10:18:08.227Z,82.40
2023-08-17T10:19:08.158Z,82.18
2023-08-17T10:20:08.137Z,81.94
2023-08-17T10:21:08.122Z,82.24
2023-08-17T10:22:08.136Z,82.28
2023-08-17T10:23:08.830Z,82.31
2023-08-17T10:24:08.838Z,81.81
2023-08-17T10:25:08.830Z,81.27
2023-08-17T10:26:08.143Z,81.29
2023-08-17T10:27:08.085Z,81.79
2023-08-17T10:28:08.119Z,81.88
2023-08-17T10:29:15.448Z,80.95
2023-08-17T10:30:09.641Z,79.68
2023-08-17T10:31:11.525Z,80.38
2023-08-17T10:32:08.290Z,80.76
2023-08-17T10:33:08.350Z,80.75
2023-08-17T10:34:08.342Z,80.76
2023-08-17T10:35:07.969Z,80.91
2023-08-17T10:36:07.971Z,81.43
2023-08-17T10:37:08.441Z,81.49
2023-08-17T10:38:11.333Z,81.82
2023-08-17T10:39:12.616Z,81.54
2023-08-17T10:40:08.605Z,81.73
2023-08-17T10:41:07.890Z,81.82
2023-08-17T10:42:08.640Z,81.64
2023-08-17T10:43:07.868Z,81.73
2023-08-17T10:44:07.888Z,82.10
2023-08-17T10:45:07.849Z,82.43
2023-08-17T10:46:07.894Z,82.02
2023-08-17T10:47:07.828Z,80.79
2023-08-17T10:48:07.955Z,80.55
2023-08-17T10:49:07.801Z,80.55
2023-08-17T10:50:07.841Z,80.92
2023-08-17T10:51:07.845Z,80.38
2023-08-17T10:52:07.778Z,80.65
2023-08-17T10:53:07.778Z,81.05
2023-08-17T10:54:07.765Z,80.93
2023-08-17T10:55:07.741Z,80.99
2023-08-17T10:56:07.770Z,81.02
2023-08-17T10:57:09.640Z,81.07
2023-08-17T10:58:07.737Z,81.71
2023-08-17T10:59:07.727Z,82.38
2023-08-17T11:00:07.691Z,82.81
2023-08-17T11:01:08.393Z,82.13
2023-08-17T11:02:08.409Z,81.01
2023-08-17T11:03:07.667Z,80.34
2023-08-17T11:04:07.649Z,80.27
2023-08-17T11:05:07.617Z,80.62
2023-08-17T11:06:08.230Z,81.18
2023-08-17T11:07:07.668Z,80.59
2023-08-17T11:08:07.628Z,79.17
2023-08-17T11:09:07.734Z,79.51
2023-08-17T11:10:07.604Z,79.81
2023-08-17T11:11:07.600Z,80.15
2023-08-17T11:12:07.563Z,80.30
2023-08-17T11:13:07.562Z,80.08
2023-08-17T11:14:07.519Z,79.86
2023-08-17T11:15:07.525Z,80.35
2023-08-17T11:16:07.624Z,79.69
2023-08-17T11:17:07.497Z,78.68
2023-08-17T11:18:09.796Z,78.09
2023-08-17T11:19:13.428Z,78.29
2023-08-17T11:20:08.458Z,78.39
2023-08-17T11:21:07.533Z,78.07
2023-08-17T11:22:07.434Z,78.16
2023-08-17T11:23:07.509Z,78.28
2023-08-17T11:24:07.425Z,77.76
2023-08-17T11:25:07.405Z,77.59
2023-08-17T11:26:08.318Z,78.87
2023-08-17T11:27:07.419Z,79.28
2023-08-17T11:28:07.396Z,79.27
2023-08-17T11:29:07.382Z,79.23
2023-08-17T11:30:07.326Z,79.09
2023-08-17T11:31:07.360Z,79.05
2023-08-17T11:32:07.386Z,79.38
2023-08-17T11:33:07.401Z,78.10
2023-08-17T11:34:07.321Z,77.96
2023-08-17T11:35:07.928Z,78.12
2023-08-17T11:36:07.270Z,78.18
2023-08-17T11:37:07.325Z,78.94
2023-08-17T11:38:09.182Z,79.07
2023-08-17T11:39:10.656Z,78.52
2023-08-17T11:40:07.221Z,78.36
2023-08-17T11:41:07.232Z,78.38
2023-08-17T11:42:07.198Z,77.98
2023-08-17T11:43:07.672Z,77.64
2023-08-17T11:44:07.207Z,76.78
2023-08-17T11:45:07.190Z,76.22
2023-08-17T11:46:07.209Z,76.86
2023-08-17T11:47:07.199Z,76.00
2023-08-17T11:48:07.172Z,75.64
2023-08-17T11:49:07.144Z,75.06
2023-08-17T11:50:20.043Z,75.35
2023-08-17T11:51:08.139Z,75.11
2023-08-17T11:52:07.089Z,75.36
2023-08-17T11:53:07.115Z,75.61
2023-08-17T11:54:07.132Z,76.58
2023-08-17T11:55:07.077Z,76.99
2023-08-17T11:56:09.426Z,76.74
2023-08-17T11:57:07.052Z,76.25
2023-08-17T11:58:10.532Z,74.77
2023-08-17T11:59:07.047Z,74.75
2023-08-17T12:00:06.993Z,75.88
2023-08-17T12:01:07.035Z,75.10
2023-08-17T12:02:06.991Z,75.10
2023-08-17T12:03:07.143Z,74.92
2023-08-17T12:04:07.075Z,76.35
2023-08-17T12:05:06.969Z,75.60
2023-08-17T12:06:07.015Z,75.95
2023-08-17T12:07:07.016Z,75.40
2023-08-17T12:08:06.909Z,75.49
2023-08-17T12:09:06.925Z,75.72
2023-08-17T12:10:06.908Z,75.29
2023-08-17T12:11:06.919Z,75.12
2023-08-17T12:12:06.894Z,74.33
2023-08-17T12:13:06.888Z,74.05
2023-08-17T12:14:06.863Z,74.91
2023-08-17T12:15:06.872Z,74.36
2023-08-17T12:16:06.838Z,75.47
2023-08-17T12:17:06.819Z,75.47
2023-08-17T12:18:06.845Z,74.97
2023-08-17T12:19:06.803Z,73.25
2023-08-17T12:20:06.774Z,73.58
2023-08-17T12:21:06.774Z,73.80
2023-08-17T12:22:06.757Z,73.72
2023-08-17T12:23:06.799Z,73.41
2023-08-17T12:24:06.759Z,73.30
2023-08-17T12:25:06.732Z,73.52
2023-08-17T12:26:06.766Z,72.41
2023-08-17T12:27:06.743Z,72.55
2023-08-17T12:28:07.234Z,73.19
2023-08-17T12:29:06.709Z,74.19
2023-08-17T12:30:06.652Z,74.61
2023-08-17T12:31:06.718Z,75.63
2023-08-17T12:32:06.646Z,76.01
2023-08-17T12:33:06.751Z,75.51
2023-08-17T12:34:06.651Z,74.80
2023-08-17T12:35:06.616Z,75.29
2023-08-17T12:36:06.673Z,75.76
2023-08-17T12:37:06.601Z,75.16
2023-08-17T12:38:06.584Z,75.00
2023-08-17T12:39:06.580Z,74.75
2023-08-17T12:40:06.540Z,74.09
2023-08-17T12:41:07.232Z,74.30
2023-08-17T12:42:12.169Z,74.42
2023-08-17T12:43:07.526Z,74.57
2023-08-17T12:44:06.516Z,73.86
2023-08-17T12:45:06.515Z,72.67
2023-08-17T12:46:06.479Z,73.34
2023-08-17T12:47:06.489Z,74.79
2023-08-17T12:48:06.509Z,75.10
2023-08-17T12:49:06.536Z,74.74
2023-08-17T12:50:06.514Z,75.06
2023-08-17T12:51:06.505Z,74.40
2023-08-17T12:52:06.512Z,74.73
2023-08-17T12:53:06.430Z,74.59